createdAt,value
2018-02-15T00:01:50.971Z,101834.72
2018-02-15T00:04:16.849Z,101833.50
2018-02-15T00:06:42.764Z,101829.67
2018-02-15T00:09:08.725Z,101832.21
2018-02-15T00:11:34.598Z,101828.61
2018-02-15T00:14:00.533Z,101835.12
2018-02-15T00:16:26.405Z,101828.27
2018-02-15T00:18:52.349Z,101830.81
2018-02-15T00:21:18.212Z,101833.43
2018-02-15T00:23:44.081Z,101833.06
2018-02-15T00:26:09.996Z,101832.58
2018-02-15T00:28:35.860Z,101830.55
2018-02-15T00:31:01.729Z,101838.62
2018-02-15T00:33:27.638Z,101825.36
2018-02-15T00:35:53.501Z,101830.81
2018-02-15T00:38:19.376Z,101832.55
2018-02-15T00:40:45.293Z,101832.98
2018-02-15T00:43:11.153Z,101822.67
2018-02-15T00:45:37.026Z,101821.31
2018-02-15T00:48:02.985Z,101826.39
2018-02-15T00:50:28.850Z,101817.84
2018-02-15T00:52:54.751Z,101825.17
2018-02-15T00:55:20.621Z,101827.75
2018-02-15T00:57:46.549Z,101813.64
2018-02-15T01:00:12.488Z,101822.70
2018-02-15T01:02:38.352Z,101821.38
2018-02-15T01:05:04.230Z,101819.23
2018-02-15T01:07:30.140Z,101823.11
2018-02-15T01:09:56.073Z,101837.00
2018-02-15T01:12:22.316Z,101823.84
2018-02-15T01:14:48.181Z,101820.86
2018-02-15T01:17:14.080Z,101818.69
2018-02-15T01:19:39.983Z,101822.00
2018-02-15T01:22:05.843Z,101817.28
2018-02-15T01:24:31.708Z,101810.28
2018-02-15T01:26:57.620Z,101824.84
2018-02-15T01:29:23.485Z,101821.34
2018-02-15T01:31:49.352Z,101821.71
2018-02-15T01:34:15.266Z,101826.91
2018-02-15T01:36:41.137Z,101823.03
2018-02-15T01:39:07.013Z,101834.13
2018-02-15T01:41:32.929Z,101823.30
2018-02-15T01:43:58.836Z,101812.02
2018-02-15T01:46:24.732Z,101814.02
2018-02-15T01:48:50.609Z,101822.94
2018-02-15T01:51:16.541Z,101813.46
2018-02-15T01:53:42.411Z,101817.66
2018-02-15T01:56:08.303Z,101810.30
2018-02-15T01:58:34.269Z,101804.70
2018-02-15T02:01:00.168Z,101791.95
2018-02-15T02:03:26.069Z,101794.67
2018-02-15T02:05:51.993Z,101794.16
2018-02-15T02:08:17.898Z,101792.42
2018-02-15T02:10:43.756Z,101789.89
2018-02-15T02:13:09.671Z,101784.62
2018-02-15T02:15:35.527Z,101782.11
2018-02-15T02:18:01.400Z,101785.47
2018-02-15T02:20:27.316Z,101790.25
2018-02-15T02:22:53.172Z,101783.73
2018-02-15T02:25:19.042Z,101795.38
2018-02-15T02:27:44.948Z,101797.07
2018-02-15T02:30:10.822Z,101800.50
2018-02-15T02:32:36.737Z,101801.34
2018-02-15T02:35:02.681Z,101808.27
2018-02-15T02:37:28.548Z,101800.09
2018-02-15T02:39:54.407Z,101800.16
2018-02-15T02:42:20.300Z,101806.95
2018-02-15T02:44:46.176Z,101804.88
2018-02-15T02:47:12.088Z,101802.78
2018-02-15T02:49:37.992Z,101813.09
2018-02-15T02:52:03.857Z,101806.24
2018-02-15T02:54:29.721Z,101800.23
2018-02-15T02:56:55.634Z,101800.72
2018-02-15T02:59:21.581Z,101798.44
2018-02-15T03:01:47.545Z,101791.88
2018-02-15T03:04:13.450Z,101786.72
2018-02-15T03:06:39.329Z,101786.91
2018-02-15T03:09:05.267Z,101795.78
2018-02-15T03:11:31.133Z,101780.42
2018-02-15T03:13:57.008Z,101789.78
2018-02-15T03:16:22.987Z,101767.83
2018-02-15T03:18:48.936Z,101775.12
2018-02-15T03:21:14.804Z,101770.84
2018-02-15T03:23:40.807Z,101776.55
2018-02-15T03:26:06.684Z,101765.80
2018-02-15T03:28:32.565Z,101761.45
2018-02-15T03:30:58.518Z,101749.84
2018-02-15T03:33:24.425Z,101753.72
2018-02-15T03:35:50.393Z,101748.48
2018-02-15T03:38:16.269Z,101749.00
2018-02-15T03:40:42.171Z,101746.86
2018-02-15T03:43:08.036Z,101746.38
2018-02-15T03:45:33.936Z,101745.50
2018-02-15T03:47:59.818Z,101744.14
2018-02-15T03:50:25.740Z,101754.52
2018-02-15T03:52:51.605Z,101752.87
2018-02-15T03:55:17.473Z,101755.44
2018-02-15T03:57:43.381Z,101749.41
2018-02-15T04:00:09.275Z,101751.61
2018-02-15T04:02:35.190Z,101749.08
2018-02-15T04:05:01.067Z,101744.47
2018-02-15T04:07:26.985Z,101742.36
2018-02-15T04:09:52.860Z,101737.61
2018-02-15T04:12:18.867Z,101732.56
2018-02-15T04:14:44.780Z,101729.88
2018-02-15T04:17:10.742Z,101727.95
2018-02-15T04:19:37.742Z,101725.30
2018-02-15T04:22:03.639Z,101727.47
2018-02-15T04:24:29.562Z,101728.36
2018-02-15T04:26:55.424Z,101733.92
2018-02-15T04:29:21.516Z,101742.98
2018-02-15T04:31:47.392Z,101736.98
2018-02-15T04:34:13.310Z,101734.33
2018-02-15T04:36:39.222Z,101739.96
2018-02-15T04:39:05.083Z,101739.01
2018-02-15T04:41:31.008Z,101736.57
2018-02-15T04:43:56.881Z,101736.98
2018-02-15T04:46:22.747Z,101745.13
2018-02-15T04:48:48.648Z,101745.94
2018-02-15T04:51:14.520Z,101750.20
2018-02-15T04:53:40.447Z,101743.28
2018-02-15T04:56:06.356Z,101745.89
2018-02-15T04:58:32.225Z,101741.47
2018-02-15T05:00:58.144Z,101750.28
2018-02-15T05:03:24.021Z,101749.88
2018-02-15T05:05:49.904Z,101760.63
2018-02-15T05:08:15.837Z,101755.47
2018-02-15T05:10:41.746Z,101752.97
2018-02-15T05:13:07.604Z,101749.50
2018-02-15T05:15:33.524Z,101747.33
2018-02-15T05:17:59.415Z,101762.33
2018-02-15T05:20:25.275Z,101747.25
2018-02-15T05:22:51.179Z,101751.56
2018-02-15T05:25:17.048Z,101755.03
2018-02-15T05:27:42.958Z,101746.41
2018-02-15T05:30:08.824Z,101746.00
2018-02-15T05:32:34.700Z,101739.92
2018-02-15T05:35:00.620Z,101738.56
2018-02-15T05:37:26.476Z,101738.19
2018-02-15T05:39:52.349Z,101742.09
2018-02-15T05:42:18.260Z,101737.45
2018-02-15T05:44:44.154Z,101733.48
2018-02-15T05:47:10.095Z,101726.11
2018-02-15T05:49:35.961Z,101738.64
2018-02-15T05:52:01.831Z,101737.42
2018-02-15T05:54:27.732Z,101738.27
2018-02-15T05:56:53.592Z,101731.27
2018-02-15T05:59:19.509Z,101724.86
2018-02-15T06:01:45.381Z,101721.80
2018-02-15T06:04:11.280Z,101724.93
2018-02-15T06:06:37.193Z,101724.08
2018-02-15T06:09:03.137Z,101718.11
2018-02-15T06:11:29.013Z,101714.42
2018-02-15T06:13:54.933Z,101715.20
2018-02-15T06:16:20.796Z,101715.67
2018-02-15T06:18:46.736Z,101714.05
2018-02-15T06:21:12.733Z,101710.39
2018-02-15T06:23:38.796Z,101717.44
2018-02-15T06:26:04.854Z,101722.19
2018-02-15T06:28:30.869Z,101713.27
2018-02-15T06:30:56.916Z,101716.80
2018-02-15T06:33:22.980Z,101712.56
2018-02-15T06:35:49.032Z,101705.30
2018-02-15T06:38:15.061Z,101696.98
2018-02-15T06:40:41.124Z,101699.53
2018-02-15T06:43:07.130Z,101704.80
2018-02-15T06:45:33.157Z,101699.33
2018-02-15T06:47:59.256Z,101701.70
2018-02-15T06:50:25.311Z,101690.23
2018-02-15T06:52:51.319Z,101701.95
2018-02-15T06:55:17.377Z,101704.09
2018-02-15T06:57:43.532Z,101703.23
2018-02-15T07:00:09.548Z,101694.61
2018-02-15T07:02:35.560Z,101701.61
2018-02-15T07:05:01.611Z,101696.55
2018-02-15T07:07:27.636Z,101687.95
2018-02-15T07:09:53.680Z,101695.87
2018-02-15T07:12:20.739Z,101696.41
2018-02-15T07:14:46.856Z,101698.21
2018-02-15T07:17:12.873Z,101693.48
2018-02-15T07:19:38.924Z,101694.91
2018-02-15T07:22:04.940Z,101700.68
2018-02-15T07:24:30.946Z,101703.46
2018-02-15T07:26:57.000Z,101707.36
2018-02-15T07:29:23.023Z,101703.34
2018-02-15T07:31:49.124Z,101699.70
2018-02-15T07:34:15.201Z,101695.37
2018-02-15T07:36:41.260Z,101695.31
2018-02-15T07:39:07.277Z,101694.81
2018-02-15T07:41:33.340Z,101689.11
2018-02-15T07:43:59.356Z,101677.78
2018-02-15T07:46:25.376Z,101684.40
2018-02-15T07:48:51.464Z,101684.55
2018-02-15T07:51:17.515Z,101679.94
2018-02-15T07:53:43.564Z,101677.16
2018-02-15T07:56:09.643Z,101676.52
2018-02-15T07:58:35.676Z,101676.70
2018-02-15T08:01:01.706Z,101679.37
2018-02-15T08:03:27.821Z,101678.67
2018-02-15T08:05:53.965Z,101665.14
2018-02-15T08:08:19.984Z,101661.89
2018-02-15T08:10:46.083Z,101655.97
2018-02-15T08:13:12.122Z,101643.02
2018-02-15T08:15:38.177Z,101651.36
2018-02-15T08:18:04.231Z,101651.23
2018-02-15T08:20:30.304Z,101647.88
2018-02-15T08:22:56.328Z,101650.73
2018-02-15T08:25:22.347Z,101664.62
2018-02-15T08:27:48.404Z,101665.23
2018-02-15T08:30:14.531Z,101665.48
2018-02-15T08:32:40.561Z,101675.27
2018-02-15T08:35:06.566Z,101671.24
2018-02-15T08:37:32.631Z,101684.20
2018-02-15T08:39:58.668Z,101682.28
2018-02-15T08:42:24.700Z,101691.57
2018-02-15T08:44:50.772Z,101681.05
2018-02-15T08:47:16.829Z,101671.08
2018-02-15T08:49:42.911Z,101672.64
2018-02-15T08:52:09.072Z,101677.55
2018-02-15T08:54:35.137Z,101684.16
2018-02-15T08:57:01.177Z,101682.03
2018-02-15T08:59:27.239Z,101677.87
2018-02-15T09:01:53.371Z,101676.56
2018-02-15T09:04:19.392Z,101675.94
2018-02-15T09:06:45.613Z,101682.08
2018-02-15T09:09:11.740Z,101677.88
2018-02-15T09:11:37.825Z,101672.02
2018-02-15T09:14:03.929Z,101663.75
2018-02-15T09:16:30.067Z,101679.73
2018-02-15T09:18:56.151Z,101681.50
2018-02-15T09:21:22.212Z,101679.30
2018-02-15T09:23:48.286Z,101683.90
2018-02-15T09:26:14.393Z,101680.80
2018-02-15T09:28:40.419Z,101669.95
2018-02-15T09:31:06.467Z,101666.79
2018-02-15T09:33:32.603Z,101667.48
2018-02-15T09:35:58.895Z,101659.81
2018-02-15T09:38:24.945Z,101660.58
2018-02-15T09:40:51.042Z,101650.40
2018-02-15T09:43:17.097Z,101649.80
2018-02-15T09:45:43.176Z,101649.01
2018-02-15T09:48:09.240Z,101646.13
2018-02-15T09:50:35.264Z,101638.50
2018-02-15T09:53:01.333Z,101629.31
2018-02-15T09:55:27.627Z,101639.60
2018-02-15T09:57:53.652Z,101631.94
2018-02-15T10:00:19.865Z,101646.59
2018-02-15T10:02:45.914Z,101637.08
2018-02-15T10:05:12.005Z,101646.88
2018-02-15T10:07:38.096Z,101651.70
2018-02-15T10:10:04.156Z,101657.48
2018-02-15T10:12:30.220Z,101645.73
2018-02-15T10:14:56.311Z,101638.53
2018-02-15T10:17:22.356Z,101645.55
2018-02-15T10:19:48.413Z,101643.19
2018-02-15T10:22:14.515Z,101639.04
2018-02-15T10:24:40.567Z,101631.43
2018-02-15T10:27:06.625Z,101628.06
2018-02-15T10:29:32.717Z,101629.37
2018-02-15T10:31:58.762Z,101621.94
2018-02-15T10:34:24.844Z,101621.55
2018-02-15T10:36:50.936Z,101615.84
2018-02-15T10:39:23.943Z,101609.68
2018-02-15T10:41:50.899Z,101607.73
2018-02-15T10:44:16.975Z,101604.98
2018-02-15T10:46:43.074Z,101606.62
2018-02-15T10:49:09.168Z,101603.84
2018-02-15T10:51:35.211Z,101603.35
2018-02-15T10:54:01.493Z,101609.62
2018-02-15T10:56:27.554Z,101603.94
2018-02-15T10:58:53.601Z,101604.23
2018-02-15T11:01:26.180Z,101604.50
2018-02-15T11:03:58.357Z,101585.66
2018-02-15T11:06:24.465Z,101590.65
2018-02-15T11:08:50.556Z,101575.92
2018-02-15T11:11:16.633Z,101566.50
2018-02-15T11:13:42.743Z,101563.61
2018-02-15T11:16:08.857Z,101556.07
2018-02-15T11:18:34.915Z,101552.80
2018-02-15T11:21:01.029Z,101555.81
2018-02-15T11:23:27.075Z,101551.00
2018-02-15T11:25:53.159Z,101543.94
2018-02-15T11:28:19.269Z,101537.83
2018-02-15T11:30:45.345Z,101532.27
2018-02-15T11:33:11.392Z,101535.77
2018-02-15T11:35:37.484Z,101534.19
2018-02-15T11:38:03.553Z,101521.67
2018-02-15T11:40:29.605Z,101525.23
2018-02-15T11:42:55.818Z,101513.93
2018-02-15T11:45:21.881Z,101516.96
2018-02-15T11:47:47.929Z,101518.17
2018-02-15T11:50:14.066Z,101501.55
2018-02-15T11:52:40.156Z,101497.69
2018-02-15T11:55:06.433Z,101488.98
2018-02-15T11:57:32.507Z,101479.92
2018-02-15T11:59:58.551Z,101474.79
2018-02-15T12:02:24.627Z,101477.32
2018-02-15T12:04:50.692Z,101462.42
2018-02-15T12:07:16.745Z,101466.69
2018-02-15T12:09:42.836Z,101458.77
2018-02-15T12:12:09.007Z,101454.76
2018-02-15T12:14:35.092Z,101450.41
2018-02-15T12:17:01.192Z,101454.87
2018-02-15T12:19:27.271Z,101446.38
2018-02-15T12:21:53.320Z,101443.11
2018-02-15T12:24:19.416Z,101445.02
2018-02-15T12:26:45.468Z,101437.23
2018-02-15T12:29:11.572Z,101441.58
2018-02-15T12:31:37.619Z,101438.52
2018-02-15T12:34:03.689Z,101426.83
2018-02-15T12:36:29.792Z,101435.55
2018-02-15T12:38:55.844Z,101436.47
2018-02-15T12:41:21.887Z,101424.76
2018-02-15T12:43:48.021Z,101412.57
2018-02-15T12:46:13.892Z,101414.76
2018-02-15T12:48:39.742Z,101406.54
2018-02-15T12:51:05.670Z,101399.52
2018-02-15T12:53:31.503Z,101394.73
2018-02-15T12:55:57.348Z,101397.78
2018-02-15T12:58:23.245Z,101386.91
2018-02-15T13:00:49.133Z,101380.83
2018-02-15T13:03:14.980Z,101382.16
2018-02-15T13:05:40.889Z,101385.65
2018-02-15T13:08:06.805Z,101391.28
2018-02-15T13:10:32.716Z,101385.98
2018-02-15T13:13:11.028Z,101381.14
2018-02-15T13:15:49.169Z,101380.27
2018-02-15T13:18:15.032Z,101374.59
2018-02-15T13:20:40.892Z,101376.33
2018-02-15T13:23:06.794Z,101364.98
2018-02-15T13:25:32.721Z,101371.05
2018-02-15T13:28:10.769Z,101355.78
2018-02-15T13:30:36.707Z,101363.97
2018-02-15T13:33:02.574Z,101358.17
2018-02-15T13:35:28.429Z,101361.13
2018-02-15T13:37:54.310Z,101353.68
2018-02-15T13:40:20.162Z,101353.20
2018-02-15T13:42:46.031Z,101346.64
2018-02-15T13:45:11.967Z,101349.18
2018-02-15T13:47:37.887Z,101343.91
2018-02-15T13:50:03.752Z,101348.18
2018-02-15T13:52:30.685Z,101340.30
2018-02-15T13:54:56.602Z,101340.22
2018-02-15T13:57:22.465Z,101337.98
2018-02-15T13:59:48.317Z,101335.79
2018-02-15T14:02:14.239Z,101330.11
2018-02-15T14:04:40.445Z,101333.17
2018-02-15T14:07:06.288Z,101329.67
2018-02-15T14:09:32.177Z,101324.92
2018-02-15T14:11:58.427Z,101322.75
2018-02-15T14:14:24.423Z,101320.53
2018-02-15T14:16:50.289Z,101317.86
2018-02-15T14:19:16.172Z,101318.70
2018-02-15T14:21:42.017Z,101328.58
2018-02-15T14:24:07.902Z,101318.13
2018-02-15T14:26:33.804Z,101309.35
2018-02-15T14:28:59.685Z,101304.11
2018-02-15T14:31:25.537Z,101296.64
2018-02-15T14:33:51.485Z,101301.36
2018-02-15T14:36:17.337Z,101292.59
2018-02-15T14:38:43.178Z,101290.78
2018-02-15T14:41:09.073Z,101294.22
2018-02-15T14:43:34.957Z,101285.53
2018-02-15T14:46:00.800Z,101286.39
2018-02-15T14:48:26.680Z,101279.45
2018-02-15T14:50:52.572Z,101275.08
2018-02-15T14:53:18.419Z,101275.52
2018-02-15T14:55:44.341Z,101272.47
2018-02-15T14:58:10.233Z,101264.25
2018-02-15T15:00:36.087Z,101258.18
2018-02-15T15:03:02.014Z,101255.25
2018-02-15T15:05:27.900Z,101252.20
2018-02-15T15:07:53.740Z,101240.03
2018-02-15T15:10:19.576Z,101238.28
2018-02-15T15:12:45.484Z,101236.49
2018-02-15T15:15:11.333Z,101230.40
2018-02-15T15:17:37.209Z,101229.89
2018-02-15T15:20:03.108Z,101230.66
2018-02-15T15:22:28.968Z,101247.14
2018-02-15T15:24:54.817Z,101241.86
2018-02-15T15:27:20.773Z,101233.56
2018-02-15T15:29:46.623Z,101243.05
2018-02-15T15:32:12.480Z,101240.39
2018-02-15T15:34:38.464Z,101247.71
2018-02-15T15:37:04.324Z,101245.91
2018-02-15T15:39:30.209Z,101254.11
2018-02-15T15:41:56.504Z,101251.48
2018-02-15T15:44:22.459Z,101247.59
2018-02-15T15:46:48.673Z,101246.70
2018-02-15T15:49:14.877Z,101257.11
2018-02-15T15:51:40.879Z,101247.12
2018-02-15T15:54:06.819Z,101244.05
2018-02-15T15:56:32.668Z,101228.00
2018-02-15T15:58:58.621Z,101214.09
2018-02-15T16:01:24.493Z,101222.31
2018-02-15T16:03:50.390Z,101227.98
2018-02-15T16:06:16.248Z,101231.05
2018-02-15T16:08:42.127Z,101243.65
2018-02-15T16:11:07.972Z,101247.50
2018-02-15T16:13:33.841Z,101256.12
2018-02-15T16:15:59.854Z,101252.62
2018-02-15T16:18:25.850Z,101246.05
2018-02-15T16:20:51.756Z,101242.55
2018-02-15T16:23:17.644Z,101242.11
2018-02-15T16:25:43.529Z,101236.86
2018-02-15T16:28:09.380Z,101229.03
2018-02-15T16:30:35.365Z,101226.42
2018-02-15T16:33:01.229Z,101238.98
2018-02-15T16:35:27.068Z,101235.07
2018-02-15T16:37:52.965Z,101241.13
2018-02-15T16:40:18.821Z,101234.17
2018-02-15T16:42:44.756Z,101240.23
2018-02-15T16:45:10.652Z,101240.16
2018-02-15T16:47:36.509Z,101241.02
2018-02-15T16:50:02.365Z,101235.77
2018-02-15T16:52:28.247Z,101236.56
2018-02-15T16:54:54.190Z,101236.96
2018-02-15T16:57:20.132Z,101233.52
2018-02-15T16:59:46.118Z,101236.12
2018-02-15T17:02:12.033Z,101225.72
2018-02-15T17:04:37.945Z,101233.53
2018-02-15T17:07:03.946Z,101229.63
2018-02-15T17:09:29.800Z,101235.24
2018-02-15T17:11:55.643Z,101242.17
2018-02-15T17:14:21.597Z,101249.11
2018-02-15T17:16:47.491Z,101242.17
2018-02-15T17:19:13.408Z,101239.55
2018-02-15T17:21:39.310Z,101238.28
2018-02-15T17:24:05.474Z,101230.03
2018-02-15T17:26:31.419Z,101236.96
2018-02-15T17:28:57.404Z,101237.59
2018-02-15T17:31:23.390Z,101243.59
2018-02-15T17:33:49.272Z,101231.91
2018-02-15T17:36:15.507Z,101242.66
2018-02-15T17:38:41.394Z,101243.48
2018-02-15T17:41:07.323Z,101240.40
2018-02-15T17:43:33.365Z,101256.41
2018-02-15T17:45:59.313Z,101251.58
2018-02-15T17:48:25.170Z,101241.03
2018-02-15T17:50:51.074Z,101240.97
2018-02-15T17:53:17.001Z,101242.64
2018-02-15T17:55:42.949Z,101227.91
2018-02-15T17:58:08.862Z,101229.63
2018-02-15T18:00:34.718Z,101220.03
2018-02-15T18:03:00.561Z,101223.08
2018-02-15T18:05:26.444Z,101229.44
2018-02-15T18:07:52.400Z,101228.45
2018-02-15T18:10:18.235Z,101227.05
2018-02-15T18:12:44.112Z,101226.63
2018-02-15T18:15:09.961Z,101223.58
2018-02-15T18:17:35.813Z,101223.98
2018-02-15T18:20:01.813Z,101231.41
2018-02-15T18:22:27.692Z,101220.58
2018-02-15T18:24:53.540Z,101227.08
2018-02-15T18:27:19.445Z,101215.78
2018-02-15T18:29:45.279Z,101214.91
2018-02-15T18:32:11.137Z,101213.61
2018-02-15T18:34:37.098Z,101209.28
2018-02-15T18:37:02.985Z,101210.13
2018-02-15T18:39:28.913Z,101205.38
2018-02-15T18:41:54.801Z,101201.03
2018-02-15T18:44:20.670Z,101194.07
2018-02-15T18:46:46.584Z,101194.05
2018-02-15T18:49:12.502Z,101191.09
2018-02-15T18:51:38.368Z,101196.69
2018-02-15T18:54:04.477Z,101187.23
2018-02-15T18:56:30.463Z,101184.58
2018-02-15T18:58:56.365Z,101189.39
2018-02-15T19:01:22.220Z,101184.59
2018-02-15T19:03:48.128Z,101185.49
2018-02-15T19:06:13.996Z,101185.05
2018-02-15T19:08:39.926Z,101191.08
2018-02-15T19:11:05.888Z,101186.28
2018-02-15T19:13:31.728Z,101189.33
2018-02-15T19:15:57.575Z,101184.05
2018-02-15T19:18:23.573Z,101178.84
2018-02-15T19:20:49.518Z,101185.84
2018-02-15T19:23:15.422Z,101182.72
2018-02-15T19:25:41.324Z,101181.31
2018-02-15T19:28:07.940Z,101189.93
2018-02-15T19:30:33.801Z,101173.52
2018-02-15T19:32:59.780Z,101170.82
2018-02-15T19:35:25.685Z,101179.83
2018-02-15T19:37:51.524Z,101171.98
2018-02-15T19:40:17.404Z,101168.10
2018-02-15T19:42:43.235Z,101174.12
2018-02-15T19:45:09.224Z,101177.97
2018-02-15T19:47:35.209Z,101173.64
2018-02-15T19:50:01.048Z,101167.10
2018-02-15T19:52:27.109Z,101167.93
2018-02-15T19:54:53.013Z,101171.46
2018-02-15T19:57:18.984Z,101160.64
2018-02-15T19:59:44.888Z,101163.25
2018-02-15T20:02:10.798Z,101159.80
2018-02-15T20:04:36.650Z,101159.31
2018-02-15T20:07:02.517Z,101150.25
2018-02-15T20:09:28.484Z,101152.41
2018-02-15T20:11:54.416Z,101152.88
2018-02-15T20:14:20.264Z,101153.38
2018-02-15T20:16:46.157Z,101137.87
2018-02-15T20:19:13.408Z,101144.36
2018-02-15T20:21:39.371Z,101141.77
2018-02-15T20:24:05.632Z,101145.23
2018-02-15T20:26:37.669Z,101152.20
2018-02-15T20:29:03.847Z,101155.26
2018-02-15T20:31:29.802Z,101150.50
2018-02-15T20:33:55.969Z,101144.80
2018-02-15T20:36:22.731Z,101153.04
2018-02-15T20:38:54.823Z,101153.85
2018-02-15T20:41:20.758Z,101148.25
2018-02-15T20:43:46.757Z,101138.73
2018-02-15T20:46:12.807Z,101144.31
2018-02-15T20:48:38.683Z,101143.36
2018-02-15T20:51:10.976Z,101147.26
2018-02-15T20:53:43.191Z,101146.76
2018-02-15T20:56:09.104Z,101152.28
2018-02-15T20:58:34.975Z,101154.39
2018-02-15T21:01:00.873Z,101155.19
2018-02-15T21:03:26.739Z,101160.31
2018-02-15T21:05:52.607Z,101164.22
2018-02-15T21:08:18.583Z,101166.81
2018-02-15T21:10:44.449Z,101163.34
2018-02-15T21:13:10.301Z,101160.70
2018-02-15T21:15:36.217Z,101152.95
2018-02-15T21:18:02.080Z,101156.79
2018-02-15T21:20:27.936Z,101151.65
2018-02-15T21:22:53.812Z,101160.70
2018-02-15T21:25:19.668Z,101161.96
2018-02-15T21:27:45.679Z,101158.96
2018-02-15T21:30:11.609Z,101162.48
2018-02-15T21:32:37.493Z,101162.92
2018-02-15T21:35:03.428Z,101157.77
2018-02-15T21:37:29.419Z,101149.51
2018-02-15T21:39:55.408Z,101144.78
2018-02-15T21:42:21.265Z,101139.58
2018-02-15T21:44:47.254Z,101137.47
2018-02-15T21:47:13.393Z,101128.87
2018-02-15T21:49:39.256Z,101134.52
2018-02-15T21:52:05.147Z,101138.44
2018-02-15T21:54:31.054Z,101138.03
2018-02-15T21:56:57.014Z,101148.45
2018-02-15T21:59:22.916Z,101151.50
2018-02-15T22:01:48.853Z,101147.25
2018-02-15T22:04:14.782Z,101155.53
2018-02-15T22:06:40.721Z,101146.45
2018-02-15T22:09:06.673Z,101150.73
2018-02-15T22:11:32.521Z,101150.74
2018-02-15T22:13:58.469Z,101158.63
2018-02-15T22:16:24.311Z,101152.57
2018-02-15T22:18:51.007Z,101154.28
2018-02-15T22:21:16.988Z,101152.57
2018-02-15T22:23:42.829Z,101163.83
2018-02-15T22:26:08.684Z,101163.08
2018-02-15T22:28:34.571Z,101162.42
2018-02-15T22:31:00.408Z,101164.55
2018-02-15T22:33:26.303Z,101154.61
2018-02-15T22:35:52.179Z,101160.64
2018-02-15T22:38:18.017Z,101155.84
2018-02-15T22:40:43.868Z,101152.39
2018-02-15T22:43:09.832Z,101147.27
2018-02-15T22:45:35.669Z,101144.99
2018-02-15T22:48:01.517Z,101146.30
2018-02-15T22:50:27.415Z,101144.11
2018-02-15T22:52:53.297Z,101151.03
2018-02-15T22:55:19.137Z,101139.47
2018-02-15T22:57:45.085Z,101141.14
2018-02-15T23:00:10.930Z,101141.98
2018-02-15T23:02:37.422Z,101145.88
2018-02-15T23:05:03.333Z,101144.18
2018-02-15T23:07:29.181Z,101148.12
2018-02-15T23:09:55.025Z,101145.50
2018-02-15T23:12:20.920Z,101140.75
2018-02-15T23:14:46.773Z,101143.34
2018-02-15T23:17:12.617Z,101136.89
2018-02-15T23:19:38.509Z,101142.88
2018-02-15T23:22:04.356Z,101139.06
2018-02-15T23:24:30.200Z,101132.55
2018-02-15T23:26:56.090Z,101130.38
2018-02-15T23:29:22.003Z,101133.41
2018-02-15T23:31:47.848Z,101136.83
2018-02-15T23:34:13.810Z,101146.32
2018-02-15T23:36:39.648Z,101149.30
2018-02-15T23:39:05.485Z,101154.17
2018-02-15T23:41:31.408Z,101149.84
2018-02-15T23:43:57.245Z,101157.20
2018-02-15T23:46:23.081Z,101155.05
2018-02-15T23:48:48.968Z,101157.23
2018-02-15T23:51:14.815Z,101160.78
2018-02-15T23:53:40.834Z,101169.45
2018-02-15T23:56:06.731Z,101180.33
2018-02-15T23:58:32.589Z,101169.49
